Time;durP1;ratioP1;P1;durP2;ratioP2;P2;SDS_P1;SDS_P2;PMS_P1;PMS_P2;Temp;Humidity;BMP_temperature;BMP_pressure;BME280_temperature;BME280_humidity;BME280_pressure;Samples;Min_cycle;Max_cycle;Signal;HPM_P1;HPM_P2
2021/12/09 00:02:12;;;;;;;28.17;14.02;;;;;;;1.12;95.51;100097.63;5094024;28;20028;-52
2021/12/09 00:04:38;;;;;;;39.65;26.30;;;;;;;1.11;95.46;100096.78;5093178;28;20472;-51
2021/12/09 00:07:03;;;;;;;22.38;13.05;;;;;;;1.13;95.72;100104.47;5093592;28;20035;-52
2021/12/09 00:09:29;;;;;;;27.42;12.85;;;;;;;1.09;95.38;100102.56;5093786;28;20035;-53
2021/12/09 00:11:54;;;;;;;24.63;13.38;;;;;;;1.08;95.29;100100.81;5093026;28;20028;-54
2021/12/09 00:14:23;;;;;;;23.30;12.48;;;;;;;1.04;95.65;100106.50;5094242;28;20036;-53
2021/12/09 00:16:50;;;;;;;23.92;11.95;;;;;;;1.04;95.86;100096.34;5093145;28;20031;-52
2021/12/09 00:19:15;;;;;;;24.38;12.95;;;;;;;1.07;96.22;100099.03;5094077;28;20027;-53
2021/12/09 00:21:41;;;;;;;23.77;12.45;;;;;;;1.03;95.94;100104.75;5093411;28;20028;-52
2021/12/09 00:24:07;;;;;;;24.33;12.00;;;;;;;1.05;95.69;100101.50;5092813;28;20040;-53
2021/12/09 00:26:32;;;;;;;29.40;11.85;;;;;;;1.04;95.66;100103.97;5093227;28;20094;-52
2021/12/09 00:28:57;;;;;;;26.55;12.55;;;;;;;1.04;96.25;100109.91;5093840;28;20031;-52
2021/12/09 00:31:24;;;;;;;26.77;12.63;;;;;;;1.07;96.29;100105.00;5093079;28;20018;-53
2021/12/09 00:33:49;;;;;;;23.55;13.43;;;;;;;1.00;95.73;100087.69;5093340;28;20108;-53
2021/12/09 00:36:26;;;;;;;21.35;12.30;;;;;;;1.00;96.01;100099.50;5093537;28;20107;-53
2021/12/09 00:38:53;;;;;;;28.83;12.68;;;;;;;0.96;96.10;100101.84;5092675;28;20031;-53
2021/12/09 00:41:18;;;;;;;23.45;11.85;;;;;;;1.01;96.26;100098.69;5093193;28;20376;-52
2021/12/09 00:43:43;;;;;;;22.35;12.10;;;;;;;1.00;95.95;100091.91;5092957;28;20024;-53
2021/12/09 00:46:09;;;;;;;21.45;11.73;;;;;;;0.94;96.04;100095.84;5092461;28;20407;-53
2021/12/09 00:48:35;;;;;;;24.83;12.52;;;;;;;0.92;96.74;100099.94;5093427;28;20057;-52
2021/12/09 00:51:02;;;;;;;26.40;11.65;;;;;;;0.94;96.71;100090.78;5092990;28;20020;-51
2021/12/09 00:53:27;;;;;;;21.45;11.35;;;;;;;0.90;96.25;100101.50;5092166;28;20035;-52
2021/12/09 00:55:53;;;;;;;25.65;12.25;;;;;;;0.93;97.15;100106.78;5092652;28;20024;-53
2021/12/09 00:58:18;;;;;;;22.65;12.45;;;;;;;0.94;96.87;100103.47;5093258;28;20027;-53
2021/12/09 01:00:44;;;;;;;24.60;11.70;;;;;;;0.95;96.83;100105.19;5092043;28;20047;-53
2021/12/09 01:03:09;;;;;;;24.67;11.95;;;;;;;0.98;96.96;100100.28;5092701;28;20040;-53
2021/12/09 01:05:34;;;;;;;24.83;12.35;;;;;;;1.03;96.52;100112.34;5092694;28;20468;-53
2021/12/09 01:08:00;;;;;;;23.83;12.55;;;;;;;1.06;96.50;100102.38;5091960;28;20077;-55
2021/12/09 01:10:25;;;;;;;27.17;12.38;;;;;;;1.07;97.12;100109.19;5092639;28;20499;-53
2021/12/09 01:12:51;;;;;;;23.63;11.32;;;;;;;1.06;95.92;100108.34;5092799;28;20476;-53
2021/12/09 01:15:17;;;;;;;22.17;11.18;;;;;;;1.07;96.45;100114.28;5092385;28;20471;-53
2021/12/09 01:17:44;;;;;;;20.80;11.70;;;;;;;1.06;96.63;100113.41;5092713;28;20024;-53
2021/12/09 01:20:11;;;;;;;23.58;12.73;;;;;;;1.03;95.98;100117.44;5092091;28;20035;-53
2021/12/09 01:22:42;;;;;;;21.83;11.35;;;;;;;1.03;96.37;100109.81;5092630;28;20032;-53
2021/12/09 01:25:09;;;;;;;24.15;11.48;;;;;;;1.01;96.26;100119.00;5092532;28;20044;-53
2021/12/09 01:27:37;;;;;;;23.40;11.50;;;;;;;0.97;96.21;100120.50;5091689;28;20463;-49
2021/12/09 01:30:09;;;;;;;;;;;;;;;1.08;95.78;100121.09;5093080;28;20107;-53
2021/12/09 01:32:36;;;;;;;21.20;11.20;;;;;;;1.03;95.73;100122.50;5092623;28;19966;-53
2021/12/09 01:35:02;;;;;;;21.10;12.00;;;;;;;1.00;95.57;100127.44;5093391;28;20039;-52
2021/12/09 01:37:27;;;;;;;23.17;12.32;;;;;;;0.96;96.25;100122.16;5096254;28;20043;-54
2021/12/09 01:39:52;;;;;;;21.48;11.48;;;;;;;0.96;95.86;100132.31;5096728;28;20020;-53
2021/12/09 01:42:18;;;;;;;24.67;11.30;;;;;;;0.93;96.42;100122.00;5095659;28;20031;-52
2021/12/09 01:44:43;;;;;;;26.73;11.80;;;;;;;0.92;96.11;100127.00;5096575;28;20012;-52
2021/12/09 01:47:09;;;;;;;26.90;12.60;;;;;;;0.92;96.43;100120.25;5096479;28;20510;-54
2021/12/09 01:49:34;;;;;;;23.38;13.10;;;;;;;0.89;96.25;100115.00;5095528;28;20032;-53
2021/12/09 01:52:00;;;;;;;26.92;12.02;;;;;;;0.89;96.15;100119.19;5096123;28;20412;-53
2021/12/09 01:54:25;;;;;;;20.63;12.07;;;;;;;0.89;96.72;100130.22;5096515;28;20038;-53
2021/12/09 01:56:51;;;;;;;23.60;12.60;;;;;;;0.86;96.62;100119.88;5095438;28;20032;-53
2021/12/09 01:59:17;;;;;;;23.15;11.98;;;;;;;0.82;96.80;100117.97;5096266;28;20027;-53
2021/12/09 02:01:42;;;;;;;27.17;11.85;;;;;;;0.82;96.61;100123.03;5096185;28;20162;-53
2021/12/09 02:04:09;;;;;;;22.38;11.32;;;;;;;0.78;96.62;100126.19;5095198;28;20028;-53
2021/12/09 02:06:40;;;;;;;20.70;11.82;;;;;;;0.76;96.97;100125.22;5096031;28;20074;-53
2021/12/09 02:09:08;;;;;;;23.40;12.45;;;;;;;0.73;97.16;100118.31;5096005;28;20421;-53
2021/12/09 02:11:33;;;;;;;23.25;12.50;;;;;;;0.73;96.48;100120.00;5095824;28;20020;-54
2021/12/09 02:13:58;;;;;;;23.42;12.00;;;;;;;0.71;96.89;100116.47;5095965;28;20377;-52
2021/12/09 02:16:25;;;;;;;31.58;12.88;;;;;;;0.67;96.84;100114.56;5095153;28;20042;-53
2021/12/09 02:18:50;;;;;;;25.10;13.25;;;;;;;0.63;97.24;100101.72;5096090;28;20081;-54
2021/12/09 02:21:19;;;;;;;26.70;12.25;;;;;;;0.69;97.79;100120.59;5095941;28;20024;-53
2021/12/09 02:23:47;;;;;;;26.02;11.77;;;;;;;0.65;97.35;100105.19;5094899;28;20020;-53
2021/12/09 02:26:13;;;;;;;;;;;;;;;0.73;96.92;100108.16;5096299;28;20087;-53
2021/12/09 02:28:40;;;;;;;21.67;11.63;;;;;;;0.65;96.32;100107.72;5095819;28;19916;-52
2021/12/09 02:31:06;;;;;;;22.58;12.88;;;;;;;0.62;97.47;100107.56;5094925;28;20498;-52
2021/12/09 02:33:31;;;;;;;20.77;12.05;;;;;;;0.60;97.32;100109.13;5095643;28;20028;-52
2021/12/09 02:35:57;;;;;;;24.00;11.90;;;;;;;0.60;96.74;100103.19;5095480;28;20031;-53
2021/12/09 02:38:22;;;;;;;28.58;11.85;;;;;;;0.61;96.84;100104.94;5095123;28;20020;-53
2021/12/09 02:40:49;;;;;;;26.70;11.95;;;;;;;0.59;97.47;100107.38;5095266;28;20051;-53
2021/12/09 02:43:15;;;;;;;26.70;11.27;;;;;;;0.59;97.60;100102.31;5095777;28;20040;-53
2021/12/09 02:45:47;;;;;;;28.65;12.05;;;;;;;0.60;97.25;100106.59;5093898;28;20024;-53
2021/12/09 02:48:16;;;;;;;23.75;11.60;;;;;;;0.59;96.76;100101.44;5094684;28;20028;-54
2021/12/09 02:50:41;;;;;;;25.67;12.00;;;;;;;0.58;97.11;100110.72;5095332;28;20024;-53
2021/12/09 02:53:07;;;;;;;31.02;11.95;;;;;;;0.58;97.07;100117.44;5094571;28;20047;-53
2021/12/09 02:55:32;;;;;;;21.98;11.63;;;;;;;0.52;97.44;100123.03;5094973;28;20028;-53
2021/12/09 02:58:02;;;;;;;29.15;11.45;;;;;;;0.54;97.42;100115.50;5095232;28;20467;-53
2021/12/09 03:00:29;;;;;;;21.27;11.10;;;;;;;0.51;97.49;100115.34;5094252;28;20032;-52
2021/12/09 03:02:56;;;;;;;25.60;11.23;;;;;;;0.51;97.66;100120.41;5094827;28;20028;-53
2021/12/09 03:05:22;;;;;;;26.25;11.68;;;;;;;0.51;97.29;100133.97;5095061;28;20035;-53
2021/12/09 03:07:47;;;;;;;27.63;10.98;;;;;;;0.47;97.67;100130.34;5094213;28;20027;-52
2021/12/09 03:10:21;;;;;;;22.38;11.30;;;;;;;0.47;98.04;100129.50;5095040;28;20028;-53
2021/12/09 03:12:49;;;;;;;22.92;11.95;;;;;;;0.47;98.03;100129.50;5093806;28;20850;-53
2021/12/09 03:15:15;;;;;;;29.73;11.90;;;;;;;0.40;97.95;100132.44;5094951;28;20031;-54
2021/12/09 03:17:40;;;;;;;26.38;11.77;;;;;;;0.45;98.22;100144.63;5094602;28;20024;-53
2021/12/09 03:20:11;;;;;;;20.88;10.35;;;;;;;0.43;97.66;100143.66;5093845;28;20078;-53
2021/12/09 03:22:38;;;;;;;25.88;10.85;;;;;;;0.45;98.43;100141.19;5094445;28;20117;-53
2021/12/09 03:25:06;;;;;;;23.30;10.77;;;;;;;0.41;97.26;100152.81;5094211;28;20126;-53
2021/12/09 03:27:31;;;;;;;22.65;11.45;;;;;;;0.43;97.83;100158.00;5093570;28;20044;-53
2021/12/09 03:29:57;;;;;;;23.80;10.00;;;;;;;0.41;97.52;100157.03;5094228;28;20450;-53
2021/12/09 03:32:23;;;;;;;27.50;11.25;;;;;;;0.41;97.34;100160.41;5094880;28;20028;-53
2021/12/09 03:34:49;;;;;;;25.33;10.93;;;;;;;0.43;97.21;100153.78;5093798;28;20050;-53
2021/12/09 03:37:18;;;;;;;20.90;10.38;;;;;;;0.40;98.07;100155.25;5094610;28;20080;-54
2021/12/09 03:39:44;;;;;;;24.75;11.02;;;;;;;0.42;97.79;100158.78;5094464;28;20024;-53
2021/12/09 03:42:18;;;;;;;23.65;10.63;;;;;;;0.44;97.90;100149.59;5093361;28;20375;-54
2021/12/09 03:44:44;;;;;;;22.02;10.30;;;;;;;0.46;97.02;100158.16;5094121;28;20035;-50
2021/12/09 03:47:13;;;;;;;23.60;10.50;;;;;;;0.46;97.69;100164.09;5094314;28;20089;-53
2021/12/09 03:49:41;;;;;;;21.63;9.88;;;;;;;0.42;97.52;100167.25;5093187;28;20054;-53
2021/12/09 03:52:07;;;;;;;24.35;10.07;;;;;;;0.41;97.94;100174.75;5094121;28;20063;-53
2021/12/09 03:54:32;;;;;;;20.55;9.82;;;;;;;0.37;97.25;100172.84;5093880;28;20048;-53
2021/12/09 03:56:57;;;;;;;21.90;9.80;;;;;;;0.36;97.16;100166.88;5092990;28;20028;-54
2021/12/09 03:59:23;;;;;;;17.67;9.30;;;;;;;0.35;97.54;100175.28;5094331;28;20023;-52
2021/12/09 04:01:48;;;;;;;20.73;9.30;;;;;;;0.33;97.38;100171.78;5093014;28;20060;-53
2021/12/09 04:04:14;;;;;;;19.85;9.93;;;;;;;0.30;97.49;100164.00;5094066;28;20024;-54
2021/12/09 04:06:40;;;;;;;28.00;10.02;;;;;;;0.32;97.80;100170.00;5094131;28;20024;-53
2021/12/09 04:09:08;;;;;;;21.23;9.52;;;;;;;0.32;97.70;100165.84;5093064;28;20024;-53
2021/12/09 04:11:34;;;;;;;;;;;;;;;0.39;97.65;100158.56;5094308;28;20138;-52
2021/12/09 04:13:59;;;;;;;20.30;9.13;;;;;;;0.29;97.37;100158.03;5093969;28;19959;-53
2021/12/09 04:16:24;;;;;;;20.73;9.00;;;;;;;0.35;98.26;100154.13;5093232;28;20089;-53
2021/12/09 04:18:50;;;;;;;15.50;8.75;;;;;;;0.31;97.58;100153.94;5093436;28;20109;-52
2021/12/09 04:21:15;;;;;;;20.65;9.25;;;;;;;0.30;97.91;100157.25;5093460;28;20032;-53
2021/12/09 04:23:41;;;;;;;20.25;9.23;;;;;;;0.24;97.16;100161.09;5092649;28;20513;-54
2021/12/09 04:26:06;;;;;;;19.35;8.60;;;;;;;0.25;97.75;100170.44;5093215;28;20133;-54
2021/12/09 04:28:33;;;;;;;19.42;9.10;;;;;;;0.22;98.00;100166.06;5093366;28;20020;-53
2021/12/09 04:31:00;;;;;;;25.70;9.50;;;;;;;0.23;97.67;100175.41;5092589;28;20024;-52
2021/12/09 04:33:26;;;;;;;22.13;9.05;;;;;;;0.22;97.94;100171.16;5093018;28;20016;-56
2021/12/09 04:35:52;;;;;;;21.48;9.10;;;;;;;0.23;97.80;100172.88;5092996;28;20391;-53
2021/12/09 04:38:17;;;;;;;23.92;9.55;;;;;;;0.24;97.74;100177.16;5092575;28;20028;-53
2021/12/09 04:40:43;;;;;;;20.25;8.35;;;;;;;0.25;98.03;100181.44;5092836;28;20078;-53
2021/12/09 04:43:08;;;;;;;23.63;9.05;;;;;;;0.25;98.10;100173.84;5093390;28;20099;-53
2021/12/09 04:45:34;;;;;;;26.77;9.40;;;;;;;0.25;98.31;100175.53;5092381;28;20112;-53
2021/12/09 04:48:00;;;;;;;19.42;8.20;;;;;;;0.29;97.84;100174.91;5093338;28;20032;-54
2021/12/09 04:50:26;;;;;;;18.55;8.25;;;;;;;0.29;98.35;100180.84;5093068;28;20070;-54
2021/12/09 04:52:51;;;;;;;17.33;8.68;;;;;;;0.28;97.68;100179.09;5092244;28;20432;-52
2021/12/09 04:55:17;;;;;;;17.73;8.18;;;;;;;0.25;98.13;100176.38;5092829;28;20020;-52
2021/12/09 04:57:43;;;;;;;21.73;7.72;;;;;;;0.28;97.83;100178.22;5093013;28;20024;-53
2021/12/09 05:00:14;;;;;;;23.23;8.55;;;;;;;0.25;97.56;100178.91;5092250;28;20028;-53
2021/12/09 05:03:00;;;;;;;21.70;8.55;;;;;;;0.24;97.52;100177.16;5092790;28;20051;-52
2021/12/09 05:05:25;;;;;;;17.40;8.15;;;;;;;0.27;97.92;100179.00;5092011;28;20093;-53
2021/12/09 05:07:50;;;;;;;24.88;8.98;;;;;;;0.25;97.66;100173.84;5092641;28;20023;-53
2021/12/09 05:10:16;;;;;;;30.70;8.73;;;;;;;0.25;97.77;100173.84;5094835;28;20020;-53
2021/12/09 05:12:41;;;;;;;17.45;7.93;;;;;;;0.23;97.58;100175.41;5096304;28;20475;-52
2021/12/09 05:15:08;;;;;;;21.10;8.32;;;;;;;0.23;97.94;100180.47;5097120;28;20103;-53
2021/12/09 05:17:33;;;;;;;27.50;8.68;;;;;;;0.23;97.71;100185.53;5096731;28;20028;-53
2021/12/09 05:19:58;;;;;;;19.73;7.95;;;;;;;0.21;97.44;100189.66;5096279;28;20031;-52
2021/12/09 05:22:24;;;;;;;20.70;7.88;;;;;;;0.19;97.92;100183.59;5096839;28;20103;-53
2021/12/09 05:24:50;;;;;;;17.83;8.45;;;;;;;0.15;97.68;100196.88;5096428;28;20028;-53
2021/12/09 05:27:17;;;;;;;17.40;8.30;;;;;;;0.17;97.77;100190.25;5096163;28;20479;-53
2021/12/09 05:29:44;;;;;;;20.60;8.75;;;;;;;0.14;98.50;100190.94;5096485;28;20020;-54
2021/12/09 05:32:11;;;;;;;20.17;8.48;;;;;;;0.14;97.38;100190.94;5096719;28;20024;-54
2021/12/09 05:34:44;;;;;;;;;;;;;;;0.22;98.05;100193.94;5096247;28;20030;-54
2021/12/09 05:37:13;;;;;;;19.48;6.00;;;;;;;0.19;97.77;100182.75;5096403;28;19959;-53
2021/12/09 05:39:39;;;;;;;12.57;5.63;;;;;;;0.18;97.72;100192.00;5096652;28;20032;-53
2021/12/09 05:42:06;;;;;;;22.00;8.55;;;;;;;0.12;97.40;100189.97;5095719;28;20108;-53
2021/12/09 05:44:31;;;;;;;20.60;8.63;;;;;;;0.12;97.59;100191.66;5096419;28;20032;-53
2021/12/09 05:46:58;;;;;;;20.58;9.07;;;;;;;0.06;97.94;100196.31;5096457;28;20035;-53
2021/12/09 05:49:23;;;;;;;21.20;8.45;;;;;;;0.05;97.88;100204.72;5095626;28;20024;-53
2021/12/09 05:51:49;;;;;;;17.08;8.20;;;;;;;0.04;98.10;100208.00;5096308;28;20020;-51
2021/12/09 05:54:14;;;;;;;22.73;8.75;;;;;;;0.06;98.69;100203.94;5095742;28;20111;-52
2021/12/09 05:56:40;;;;;;;20.90;8.40;;;;;;;0.03;98.46;100218.94;5096279;28;20487;-54
2021/12/09 05:59:07;;;;;;;19.67;8.55;;;;;;;0.08;98.58;100209.94;5096180;28;20474;-52
2021/12/09 06:01:33;;;;;;;20.83;8.60;;;;;;;0.08;97.93;100208.31;5095425;28;20058;-54
2021/12/09 06:03:58;;;;;;;18.67;9.23;;;;;;;0.09;98.60;100205.00;5095954;28;20032;-52
2021/12/09 06:06:23;;;;;;;18.42;8.65;;;;;;;0.09;98.31;100211.69;5096496;28;20016;-54
2021/12/09 06:08:49;;;;;;;21.85;9.27;;;;;;;0.10;98.12;100203.34;5095192;28;20133;-53
2021/12/09 06:11:15;;;;;;;22.83;9.13;;;;;;;0.08;99.30;100207.41;5096206;28;20012;-54
2021/12/09 06:13:40;;;;;;;20.67;9.20;;;;;;;0.02;99.06;100204.53;5095874;28;20504;-53
2021/12/09 06:16:07;;;;;;;22.95;9.48;;;;;;;0.04;97.99;100201.31;5095214;28;20460;-53
2021/12/09 06:18:33;;;;;;;22.33;9.88;;;;;;;0.05;98.88;100205.56;5095879;28;20032;-53
2021/12/09 06:20:59;;;;;;;20.60;9.40;;;;;;;0.03;98.87;100207.16;5095894;28;20031;-52
2021/12/09 06:23:24;;;;;;;25.00;9.65;;;;;;;0.05;98.69;100202.16;5095317;28;20024;-53
2021/12/09 06:25:50;;;;;;;19.90;6.82;;;;;;;0.08;99.10;100199.81;5095335;28;20044;-53
2021/12/09 06:28:17;;;;;;;21.75;9.05;;;;;;;0.03;98.55;100206.25;5095812;28;20069;-54
2021/12/09 06:30:44;;;;;;;21.77;9.90;;;;;;;0.05;98.59;100204.72;5094769;28;20371;-54
2021/12/09 06:33:09;;;;;;;20.40;9.63;;;;;;;0.04;99.07;100203.84;5095471;28;20039;-53
2021/12/09 06:35:36;;;;;;;24.30;10.23;;;;;;;0.06;99.18;100201.41;5095649;28;20356;-53
2021/12/09 06:38:03;;;;;;;24.50;8.03;;;;;;;0.08;98.93;100199.81;5094867;28;20032;-53
2021/12/09 06:40:28;;;;;;;18.45;9.50;;;;;;;0.04;98.30;100213.09;5095117;28;20486;-54
2021/12/09 06:42:54;;;;;;;22.10;9.93;;;;;;;0.02;98.81;100214.66;5095327;28;20115;-53
2021/12/09 06:45:23;;;;;;;26.15;10.32;;;;;;;0.04;98.99;100208.91;5094684;28;20103;-53
2021/12/09 06:47:50;;;;;;;24.63;10.40;;;;;;;0.02;99.07;100217.19;5094855;28;20506;-53
2021/12/09 06:50:19;;;;;;;20.63;10.45;;;;;;;0.00;99.73;100227.25;5095359;28;20077;-53
2021/12/09 06:52:45;;;;;;;21.13;10.00;;;;;;;-0.04;99.18;100236.31;5094271;28;20055;-55
2021/12/09 06:55:13;;;;;;;25.67;10.00;;;;;;;-0.04;99.29;100231.25;5095169;28;20024;-53
2021/12/09 06:57:39;;;;;;;;;;;;;;;0.05;98.67;100230.91;5094398;28;20490;-52
2021/12/09 07:00:07;;;;;;;23.40;10.13;;;;;;;-0.05;98.77;100226.94;5094945;28;19973;-54
2021/12/09 07:02:33;;;;;;;25.08;9.70;;;;;;;-0.07;98.84;100220.03;5094798;28;20058;-53
2021/12/09 07:04:58;;;;;;;22.83;9.98;;;;;;;-0.09;99.29;100227.53;5094296;28;20024;-54
2021/12/09 07:07:23;;;;;;;18.30;7.75;;;;;;;-0.02;99.16;100234.72;5095099;28;20024;-54
2021/12/09 07:09:48;;;;;;;26.73;10.88;;;;;;;-0.08;99.04;100236.91;5094827;28;20031;-54
2021/12/09 07:12:14;;;;;;;21.42;10.18;;;;;;;-0.05;99.98;100237.06;5094064;28;20016;-54
2021/12/09 07:14:40;;;;;;;23.10;10.50;;;;;;;-0.04;100.00;100236.31;5094602;28;20112;-53
2021/12/09 07:17:05;;;;;;;26.30;10.10;;;;;;;-0.03;99.91;100227.94;5094700;28;20028;-53
2021/12/09 07:19:30;;;;;;;23.55;9.85;;;;;;;-0.03;99.53;100233.00;5093974;28;20380;-53
2021/12/09 07:21:56;;;;;;;24.00;10.95;;;;;;;-0.03;99.75;100227.94;5094870;28;20113;-54
2021/12/09 07:24:21;;;;;;;24.52;10.57;;;;;;;-0.05;99.79;100229.47;5094682;28;20028;-53
2021/12/09 07:26:46;;;;;;;19.40;9.57;;;;;;;-0.03;100.00;100230.47;5093412;28;20118;-52
2021/12/09 07:29:12;;;;;;;28.42;10.98;;;;;;;0.00;100.00;100237.38;5094437;28;20379;-54
2021/12/09 07:31:37;;;;;;;21.55;10.82;;;;;;;-0.02;99.64;100237.25;5094157;28;20382;-53
2021/12/09 07:34:02;;;;;;;24.02;10.43;;;;;;;-0.01;100.00;100235.63;5093110;28;20054;-53
2021/12/09 07:36:28;;;;;;;24.45;10.40;;;;;;;-0.01;100.00;100239.00;5094288;28;20060;-53
2021/12/09 07:38:53;;;;;;;20.52;10.80;;;;;;;0.01;99.26;100243.31;5094443;28;20048;-53
2021/12/09 07:41:19;;;;;;;22.20;10.65;;;;;;;-0.01;99.94;100251.69;5094108;28;20134;-52
2021/12/09 07:43:45;;;;;;;30.17;11.13;;;;;;;-0.02;99.56;100255.00;5094205;28;20024;-53
2021/12/09 07:46:11;;;;;;;22.73;10.93;;;;;;;-0.02;100.00;100255.00;5094238;28;20024;-52
2021/12/09 07:48:36;;;;;;;24.38;10.93;;;;;;;-0.01;99.69;100251.69;5093516;28;20023;-53
2021/12/09 07:51:02;;;;;;;24.75;10.48;;;;;;;-0.02;100.00;100249.91;5094129;28;20024;-53
2021/12/09 07:53:28;;;;;;;27.52;11.43;;;;;;;0.01;100.00;100244.16;5094042;28;20115;-53
2021/12/09 07:55:54;;;;;;;21.33;11.10;;;;;;;0.01;100.00;100243.31;5092998;28;20051;-53
2021/12/09 07:58:19;;;;;;;24.30;10.73;;;;;;;0.04;99.74;100240.94;5093890;28;20024;-53
2021/12/09 08:00:46;;;;;;;27.27;11.32;;;;;;;0.03;100.00;100241.72;5093556;28;20038;-55
2021/12/09 08:03:12;;;;;;;21.95;11.20;;;;;;;0.04;99.84;100239.31;5093370;28;20020;-53
2021/12/09 08:05:42;;;;;;;27.48;10.73;;;;;;;0.08;99.88;100235.28;5093409;28;20371;-54
2021/12/09 08:08:07;;;;;;;23.38;11.82;;;;;;;0.11;99.79;100255.75;5093031;28;20379;-54
2021/12/09 08:10:34;;;;;;;19.55;10.85;;;;;;;0.14;99.66;100266.97;5093477;28;20024;-54
2021/12/09 08:13:01;;;;;;;27.38;11.52;;;;;;;0.16;99.80;100259.47;5093553;28;20078;-52
2021/12/09 08:15:34;;;;;;;28.02;11.70;;;;;;;0.14;99.82;100266.97;5092571;28;20034;-53
2021/12/09 08:18:25;;;;;;;26.83;11.60;;;;;;;0.20;100.00;100274.06;5093679;28;20039;-51
2021/12/09 08:20:52;;;;;;;24.65;11.18;;;;;;;0.23;99.77;100275.91;5093041;28;20038;-53
2021/12/09 08:23:19;;;;;;;24.98;11.75;;;;;;;0.32;100.00;100266.34;5092891;28;20020;-53
2021/12/09 08:25:45;;;;;;;23.40;11.25;;;;;;;0.39;100.00;100258.34;5093255;28;20039;-53
2021/12/09 08:28:11;;;;;;;22.98;11.15;;;;;;;0.46;99.61;100260.44;5093557;28;20024;-53
2021/12/09 08:30:38;;;;;;;27.77;10.73;;;;;;;0.53;98.95;100263.34;5092643;28;20047;-54
2021/12/09 08:33:05;;;;;;;23.63;10.55;;;;;;;0.57;99.18;100256.03;5093192;28;20427;-53
2021/12/09 08:35:31;;;;;;;28.83;10.70;;;;;;;0.62;98.34;100259.72;5093206;28;20024;-54
2021/12/09 08:37:58;;;;;;;22.48;10.63;;;;;;;0.69;98.47;100252.50;5092360;28;20414;-55
2021/12/09 08:40:26;;;;;;;22.15;10.32;;;;;;;0.74;98.27;100259.56;5093238;28;20069;-54
2021/12/09 08:42:52;;;;;;;21.08;11.10;;;;;;;0.79;98.36;100259.84;5093300;28;20108;-53
2021/12/09 08:45:21;;;;;;;24.90;9.80;;;;;;;0.82;98.21;100265.09;5092640;28;20062;-54
2021/12/09 08:47:48;;;;;;;20.60;10.27;;;;;;;0.86;97.51;100267.03;5093016;28;20028;-52
2021/12/09 08:50:18;;;;;;;17.27;7.78;;;;;;;0.93;97.66;100266.63;5092611;28;20106;-54
2021/12/09 08:52:49;;;;;;;23.77;8.98;;;;;;;0.96;97.71;100271.84;5092791;28;20027;-54
2021/12/09 08:55:15;;;;;;;20.83;9.20;;;;;;;1.02;97.26;100273.00;5093172;28;20036;-56
2021/12/09 08:57:41;;;;;;;18.33;9.43;;;;;;;1.06;97.34;100269.84;5092104;28;20024;-54
2021/12/09 09:00:12;;;;;;;22.50;10.25;;;;;;;1.09;96.72;100267.50;5092861;28;20035;-53
2021/12/09 09:02:42;;;;;;;19.83;9.20;;;;;;;1.13;96.75;100272.84;5092620;28;20475;-51
2021/12/09 09:05:11;;;;;;;23.52;9.93;;;;;;;1.18;96.31;100259.56;5091931;28;20039;-55
2021/12/09 09:07:37;;;;;;;21.90;9.95;;;;;;;1.20;96.83;100266.47;5092590;28;20023;-54
2021/12/09 09:10:07;;;;;;;22.88;10.35;;;;;;;1.23;96.00;100264.09;5092854;28;20070;-54
2021/12/09 09:12:33;;;;;;;19.83;10.07;;;;;;;1.27;95.84;100271.09;5091892;28;20495;-52
2021/12/09 09:14:59;;;;;;;27.65;9.95;;;;;;;1.31;96.02;100270.50;5092699;28;20541;-51
2021/12/09 09:17:24;;;;;;;20.30;9.75;;;;;;;1.35;96.17;100273.22;5092667;28;20060;-54
2021/12/09 09:19:50;;;;;;;22.30;10.35;;;;;;;1.38;96.15;100269.19;5091527;28;20060;-54
2021/12/09 09:22:15;;;;;;;27.98;10.30;;;;;;;1.42;95.63;100270.22;5092903;28;20102;-52
2021/12/09 09:24:40;;;;;;;20.13;10.15;;;;;;;1.45;95.70;100276.38;5092473;28;20375;-54
2021/12/09 09:27:06;;;;;;;23.98;9.75;;;;;;;1.50;95.12;100283.34;5091915;28;20062;-54
2021/12/09 09:29:34;;;;;;;25.60;11.15;;;;;;;1.51;95.45;100278.41;5092560;28;20157;-55
2021/12/09 09:32:00;;;;;;;20.48;10.63;;;;;;;1.56;94.72;100282.06;5092633;28;20024;-53
2021/12/09 09:34:25;;;;;;;24.15;10.27;;;;;;;1.57;95.09;100286.34;5091720;28;20028;-54
2021/12/09 09:36:50;;;;;;;24.17;10.30;;;;;;;1.60;95.36;100271.28;5092402;28;20031;-53
2021/12/09 09:39:21;;;;;;;26.48;11.55;;;;;;;1.63;94.95;100279.06;5092442;28;20082;-53
2021/12/09 09:41:58;;;;;;;22.58;10.82;;;;;;;1.66;95.14;100277.50;5092473;28;20020;-55
2021/12/09 09:44:30;;;;;;;23.13;10.88;;;;;;;1.71;94.49;100281.19;5092665;28;20409;-51
2021/12/09 09:47:02;;;;;;;24.05;10.45;;;;;;;1.75;95.19;100286.50;5091625;28;20024;-53
2021/12/09 09:49:30;;;;;;;20.25;12.80;;;;;;;1.77;94.90;100294.19;5092679;28;20193;-52
2021/12/09 09:51:57;;;;;;;29.65;13.18;;;;;;;1.79;95.13;100290.94;5092640;28;20028;-53
2021/12/09 09:54:24;;;;;;;24.42;12.20;;;;;;;1.83;94.96;100293.69;5091919;28;20036;-52
2021/12/09 09:56:49;;;;;;;17.85;10.48;;;;;;;1.85;94.77;100299.72;5094755;28;20028;-53
2021/12/09 09:59:17;;;;;;;22.30;11.02;;;;;;;1.86;94.85;100294.75;5096255;28;20020;-54
2021/12/09 10:01:43;;;;;;;;;;;;;;;1.95;94.64;100299.44;5095667;28;20020;-53
2021/12/09 10:04:10;;;;;;;23.38;11.02;;;;;;;1.92;94.83;100296.72;5096483;28;19923;-52
2021/12/09 10:06:38;;;;;;;23.52;12.10;;;;;;;1.95;94.58;100299.44;5096258;28;20024;-54
2021/12/09 10:09:05;;;;;;;21.58;11.27;;;;;;;1.98;94.26;100299.63;5095327;28;20115;-53
2021/12/09 10:11:30;;;;;;;28.35;13.13;;;;;;;1.98;94.71;100295.41;5095907;28;20020;-53
2021/12/09 10:14:12;;;;;;;22.77;12.10;;;;;;;2.02;94.52;100290.50;5095886;28;20024;-53
2021/12/09 10:16:38;;;;;;;25.42;11.90;;;;;;;2.04;93.76;100286.34;5095200;28;20032;-50
2021/12/09 10:19:15;;;;;;;24.17;12.63;;;;;;;2.07;94.51;100278.91;5095860;28;20024;-53
2021/12/09 10:21:41;;;;;;;29.30;12.93;;;;;;;2.11;94.28;100280.81;5094884;28;20044;-53
2021/12/09 10:24:08;;;;;;;26.55;12.80;;;;;;;2.13;94.89;100274.16;5095479;28;20020;-50
2021/12/09 10:26:39;;;;;;;22.38;11.98;;;;;;;2.16;94.19;100276.88;5095087;28;20470;-52
2021/12/09 10:29:20;;;;;;;26.55;12.75;;;;;;;2.22;94.60;100277.22;5094883;28;20020;-53
2021/12/09 10:31:57;;;;;;;22.60;11.85;;;;;;;2.23;94.10;100263.69;5095554;28;20110;-54
2021/12/09 10:34:41;;;;;;;25.05;12.38;;;;;;;2.27;94.37;100264.72;5095548;28;20024;-53
2021/12/09 10:37:25;;;;;;;22.98;12.45;;;;;;;2.29;94.44;100265.69;5094773;28;20024;-55
2021/12/09 10:39:56;;;;;;;27.65;12.30;;;;;;;2.35;94.35;100265.13;5095124;28;20387;-53
2021/12/09 10:42:30;;;;;;;30.88;12.30;;;;;;;2.40;94.45;100261.16;5095474;28;20035;-54
2021/12/09 10:45:15;;;;;;;22.70;12.48;;;;;;;2.43;94.11;100267.28;5094622;28;20483;-53
2021/12/09 10:47:57;;;;;;;22.33;12.07;;;;;;;2.50;93.93;100265.09;5094281;28;20384;-54
2021/12/09 10:55:43;;;;;;;26.50;13.07;;;;;;;2.56;93.51;100276.44;5094809;28;20472;-56
2021/12/09 10:58:11;;;;;;;26.02;12.43;;;;;;;2.59;93.57;100275.72;5094230;28;20024;-56
2021/12/09 11:00:41;;;;;;;24.92;12.38;;;;;;;2.60;93.80;100282.56;5094998;28;20036;-56
2021/12/09 11:03:08;;;;;;;23.25;12.50;;;;;;;2.63;94.13;100273.44;5094814;28;20159;-55
2021/12/09 11:05:38;;;;;;;20.40;12.48;;;;;;;2.66;93.63;100269.28;5093907;28;20396;-56
2021/12/09 11:08:14;;;;;;;24.05;12.80;;;;;;;2.69;93.56;100272.00;5093489;28;20024;-56
2021/12/09 11:10:46;;;;;;;25.00;13.25;;;;;;;2.68;93.65;100268.56;5094759;28;20028;-55
2021/12/09 11:13:12;;;;;;;19.75;12.27;;;;;;;2.70;93.79;100268.66;5094945;28;20107;-52
2021/12/09 11:15:49;;;;;;;18.60;11.80;;;;;;;2.72;93.72;100267.94;5094531;28;20059;-56
2021/12/09 11:18:33;;;;;;;18.15;11.52;;;;;;;2.74;93.64;100265.50;5094467;28;20056;-55
2021/12/09 11:21:02;;;;;;;18.58;12.50;;;;;;;2.75;93.66;100259.59;5094635;28;20046;-55
2021/12/09 11:23:44;;;;;;;22.13;12.43;;;;;;;2.78;93.57;100252.13;5094566;28;20418;-56
2021/12/09 11:26:28;;;;;;;24.20;12.93;;;;;;;2.80;93.33;100250.50;5093592;28;20044;-56